BIVO/VPN METAR and TAF weather

Enter ICAO airport designator
Station Type Date Time Source
BIVO METAR 2022/06/28 12:00 UTC NOAA

BIVO 281200Z 19013KT 9999 FEW030 SCT040 14/06 Q1007


Station Type Date Time Source
BIVO Decoded METAR 2022/06/28 12:00 UTC NOAA

Skjaldthingsstadir, Iceland (BIVO) 65-42N 014-49W 48M
Jun 28, 2022 - 08:00 AM EDT / 2022.06.28 1200 UTC
Wind: from the S (190 degrees) at 15 MPH (13 KT):0
Visibility: greater than 7 mile(s):0
Sky conditions: partly cloudy
Temperature: 57 F (14 C)
Dew Point: 42 F (6 C)
Relative Humidity: 58%
Pressure (altimeter): 29.74 in. Hg (1007 hPa)
ob: BIVO 281200Z 19013KT 9999 FEW030 SCT040 14/06 Q1007
cycle: 12

Station Type Date Time Source
BIVO TAF UTC NOAA

Error!

Example: see airport list